createdAt,value
2019-02-08T00:00:44.350Z,101210.07
2019-02-08T00:03:13.443Z,101210.98
2019-02-08T00:05:42.563Z,101208.38
2019-02-08T00:08:11.689Z,101213.08
2019-02-08T00:10:42.311Z,101212.59
2019-02-08T00:13:11.427Z,101206.87
2019-02-08T00:15:40.536Z,101203.19
2019-02-08T00:18:09.659Z,101196.07
2019-02-08T00:20:38.770Z,101197.03
2019-02-08T00:23:07.957Z,101209.95
2019-02-08T00:25:37.154Z,101212.77
2019-02-08T00:28:06.269Z,101203.19
2019-02-08T00:30:35.460Z,101210.72
2019-02-08T00:33:04.643Z,101209.39
2019-02-08T00:35:34.025Z,101219.36
2019-02-08T00:38:03.145Z,101222.56
2019-02-08T00:40:32.258Z,101214.47
2019-02-08T00:43:01.384Z,101209.19
2019-02-08T00:45:30.497Z,101209.48
2019-02-08T00:47:59.609Z,101198.97
2019-02-08T00:50:29.969Z,101199.39
2019-02-08T00:52:59.082Z,101193.33
2019-02-08T00:55:28.201Z,101214.06
2019-02-08T00:57:57.681Z,101202.70
2019-02-08T01:00:27.764Z,101195.81
2019-02-08T01:02:56.870Z,101202.70
2019-02-08T01:05:29.002Z,101207.38
2019-02-08T01:07:58.190Z,101210.19
2019-02-08T01:10:31.910Z,101206.41
2019-02-08T01:13:01.938Z,101196.69
2019-02-08T01:15:32.235Z,101203.02
2019-02-08T01:18:01.425Z,101201.29
2019-02-08T01:20:30.533Z,101194.56
2019-02-08T01:22:59.650Z,101203.47
2019-02-08T01:25:32.300Z,101203.98
2019-02-08T01:28:01.412Z,101198.69
2019-02-08T01:30:32.068Z,101196.50
2019-02-08T01:33:01.180Z,101192.69
2019-02-08T01:35:30.298Z,101194.45
2019-02-08T01:38:00.345Z,101193.90
2019-02-08T01:40:31.706Z,101188.59
2019-02-08T01:43:00.816Z,101196.49
2019-02-08T01:45:31.813Z,101195.91
2019-02-08T01:48:01.240Z,101190.91
2019-02-08T01:50:31.073Z,101197.25
2019-02-08T01:53:00.281Z,101191.66
2019-02-08T01:55:29.410Z,101202.92
2019-02-08T01:57:58.851Z,101195.38
2019-02-08T02:00:34.172Z,101191.17
2019-02-08T02:03:03.455Z,101192.25
2019-02-08T02:05:32.565Z,101192.54
2019-02-08T02:08:01.672Z,101194.17
2019-02-08T02:10:35.651Z,101196.48
2019-02-08T02:13:05.006Z,101192.22
2019-02-08T02:15:34.122Z,101190.81
2019-02-08T02:18:03.232Z,101186.36
2019-02-08T02:20:34.283Z,101188.05
2019-02-08T02:23:03.400Z,101193.06
2019-02-08T02:25:32.516Z,101195.11
2019-02-08T02:28:01.640Z,101196.64
2019-02-08T02:30:35.451Z,101201.55
2019-02-08T02:33:08.931Z,101192.73
2019-02-08T02:35:38.048Z,101186.75
2019-02-08T02:38:07.601Z,101189.13
2019-02-08T02:40:36.797Z,101182.29
2019-02-08T02:43:06.242Z,101191.05
2019-02-08T02:45:39.606Z,101195.30
2019-02-08T02:48:10.356Z,101186.03
2019-02-08T02:50:39.547Z,101188.22
2019-02-08T02:53:08.644Z,101186.68
2019-02-08T02:55:37.770Z,101186.81
2019-02-08T02:58:06.884Z,101176.41
2019-02-08T03:00:39.469Z,101175.66
2019-02-08T03:03:08.585Z,101188.08
2019-02-08T03:05:37.688Z,101178.45
2019-02-08T03:08:08.484Z,101179.66
2019-02-08T03:10:37.592Z,101182.45
2019-02-08T03:13:07.078Z,101172.82
2019-02-08T03:15:36.197Z,101169.69
2019-02-08T03:18:05.546Z,101177.83
2019-02-08T03:20:34.664Z,101171.28
2019-02-08T03:23:03.956Z,101171.00
2019-02-08T03:25:33.070Z,101172.04
2019-02-08T03:28:02.195Z,101170.02
2019-02-08T03:30:42.106Z,101181.11
2019-02-08T03:33:11.219Z,101166.52
2019-02-08T03:35:40.332Z,101155.67
2019-02-08T03:38:09.541Z,101157.07
2019-02-08T03:40:38.740Z,101145.20
2019-02-08T03:43:08.399Z,101143.66
2019-02-08T03:45:39.560Z,101145.47
2019-02-08T03:48:09.117Z,101141.02
2019-02-08T03:50:38.229Z,101150.34
2019-02-08T03:53:08.122Z,101145.05
2019-02-08T03:55:38.922Z,101146.59
2019-02-08T03:58:09.151Z,101147.53
2019-02-08T04:00:51.710Z,101139.84
2019-02-08T04:03:20.831Z,101145.08
2019-02-08T04:05:49.962Z,101140.05
2019-02-08T04:08:19.181Z,101131.91
2019-02-08T04:10:49.058Z,101135.05
2019-02-08T04:13:18.182Z,101137.27
2019-02-08T04:15:47.296Z,101136.41
2019-02-08T04:18:16.653Z,101128.33
2019-02-08T04:20:45.760Z,101138.69
2019-02-08T04:23:14.887Z,101135.86
2019-02-08T04:25:43.993Z,101138.20
2019-02-08T04:28:13.112Z,101142.25
2019-02-08T04:30:42.611Z,101139.66
2019-02-08T04:33:12.045Z,101141.59
2019-02-08T04:35:41.174Z,101150.34
2019-02-08T04:38:10.288Z,101144.39
2019-02-08T04:40:39.403Z,101138.30
2019-02-08T04:43:08.522Z,101137.77
2019-02-08T04:45:37.639Z,101125.50
2019-02-08T04:48:06.769Z,101130.86
2019-02-08T04:50:35.887Z,101130.53
2019-02-08T04:53:05.013Z,101125.41
2019-02-08T04:55:34.118Z,101122.13
2019-02-08T04:58:03.237Z,101121.95
2019-02-08T05:00:36.293Z,101120.66
2019-02-08T05:03:05.910Z,101126.49
2019-02-08T05:05:35.143Z,101125.19
2019-02-08T05:08:04.548Z,101123.44
2019-02-08T05:10:34.408Z,101121.59
2019-02-08T05:13:03.530Z,101126.80
2019-02-08T05:15:32.713Z,101115.17
2019-02-08T05:18:01.839Z,101121.50
2019-02-08T05:20:31.695Z,101118.45
2019-02-08T05:23:00.814Z,101114.42
2019-02-08T05:25:30.003Z,101115.36
2019-02-08T05:27:59.124Z,101105.42
2019-02-08T05:30:33.828Z,101115.51
2019-02-08T05:33:02.938Z,101115.84
2019-02-08T05:35:32.078Z,101114.12
2019-02-08T05:38:01.245Z,101107.17
2019-02-08T05:40:30.372Z,101107.20
2019-02-08T05:42:59.489Z,101104.94
2019-02-08T05:45:28.615Z,101101.77
2019-02-08T05:47:57.729Z,101105.83
2019-02-08T05:50:29.795Z,101099.22
2019-02-08T05:52:58.910Z,101098.37
2019-02-08T05:55:32.196Z,101092.71
2019-02-08T05:58:01.309Z,101087.50
2019-02-08T06:00:49.218Z,101096.51
2019-02-08T06:03:18.336Z,101091.50
2019-02-08T06:05:47.531Z,101096.05
2019-02-08T06:08:16.640Z,101089.13
2019-02-08T06:10:45.769Z,101079.59
2019-02-08T06:13:14.877Z,101087.02
2019-02-08T06:15:43.999Z,101078.36
2019-02-08T06:18:13.114Z,101079.48
2019-02-08T06:20:42.235Z,101072.62
2019-02-08T06:23:12.326Z,101085.22
2019-02-08T06:25:41.447Z,101089.13
2019-02-08T06:28:10.557Z,101084.43
2019-02-08T06:30:39.676Z,101085.33
2019-02-08T06:33:08.862Z,101087.41
2019-02-08T06:35:37.983Z,101089.11
2019-02-08T06:38:07.123Z,101084.86
2019-02-08T06:40:39.366Z,101089.75
2019-02-08T06:43:08.484Z,101087.20
2019-02-08T06:45:37.626Z,101095.63
2019-02-08T06:48:08.272Z,101085.22
2019-02-08T06:50:37.395Z,101086.27
2019-02-08T06:53:06.812Z,101093.85
2019-02-08T06:55:35.934Z,101084.75
2019-02-08T06:58:14.822Z,101089.57
2019-02-08T07:00:59.483Z,101087.41
2019-02-08T07:03:42.472Z,101076.98
2019-02-08T07:06:22.164Z,101084.46
2019-02-08T07:08:52.915Z,101087.54
2019-02-08T07:11:30.076Z,101083.00
2019-02-08T07:14:18.634Z,101083.19
2019-02-08T07:17:04.769Z,101085.95
2019-02-08T07:19:35.772Z,101086.23
2019-02-08T07:22:12.514Z,101081.86
2019-02-08T07:24:43.294Z,101087.60
2019-02-08T07:27:26.296Z,101083.23
2019-02-08T07:30:15.501Z,101079.25
2019-02-08T07:32:52.015Z,101081.95
2019-02-08T07:35:25.381Z,101083.08
2019-02-08T07:38:01.899Z,101082.75
2019-02-08T07:40:35.947Z,101077.17
2019-02-08T07:43:16.106Z,101081.88
2019-02-08T07:46:06.473Z,101075.26
2019-02-08T07:48:53.426Z,101081.37
2019-02-08T07:51:27.398Z,101079.27
2019-02-08T07:54:17.928Z,101083.34
2019-02-08T07:56:48.952Z,101082.06
2019-02-08T07:59:25.510Z,101084.69
2019-02-08T08:01:56.551Z,101082.14
2019-02-08T08:04:27.982Z,101086.23
2019-02-08T08:07:10.569Z,101092.59
2019-02-08T08:09:47.010Z,101082.56
2019-02-08T08:12:18.428Z,101092.42
2019-02-08T08:14:49.187Z,101081.99
2019-02-08T08:17:36.465Z,101085.45
2019-02-08T08:20:25.500Z,101089.48
2019-02-08T08:23:02.265Z,101077.41
2019-02-08T08:25:36.067Z,101089.89
2019-02-08T08:28:15.197Z,101081.99
2019-02-08T08:30:48.256Z,101074.05
2019-02-08T08:33:24.005Z,101080.23
2019-02-08T08:36:05.191Z,101085.63
2019-02-08T08:38:49.904Z,101088.27
2019-02-08T08:41:28.060Z,101082.32
2019-02-08T08:44:08.975Z,101083.28
2019-02-08T08:46:50.356Z,101079.36
2019-02-08T08:49:28.567Z,101080.67
2019-02-08T08:52:09.441Z,101081.02
2019-02-08T08:54:56.641Z,101081.23
2019-02-08T08:57:48.274Z,101073.12
2019-02-08T09:00:38.726Z,101083.55
2019-02-08T09:03:29.159Z,101074.42
2019-02-08T09:06:22.846Z,101082.32
2019-02-08T09:09:17.617Z,101068.41
2019-02-08T09:11:59.020Z,101059.83
2019-02-08T09:14:39.902Z,101060.50
2019-02-08T09:17:28.530Z,101054.09
2019-02-08T09:20:26.203Z,101053.20
2019-02-08T09:23:19.734Z,101052.46
2019-02-08T09:26:08.945Z,101052.72
2019-02-08T09:28:59.411Z,101049.73
2019-02-08T09:31:48.160Z,101055.41
2019-02-08T09:34:40.237Z,101051.99
2019-02-08T09:37:27.521Z,101043.83
2019-02-08T09:40:17.861Z,101044.33
2019-02-08T09:42:55.323Z,101038.33
2019-02-08T09:45:48.530Z,101041.02
2019-02-08T09:48:43.119Z,101032.39
2019-02-08T09:51:49.155Z,101035.55
2019-02-08T09:54:39.547Z,101028.66
2019-02-08T09:57:39.294Z,101029.62
2019-02-08T10:00:45.424Z,101017.02
2019-02-08T10:03:35.932Z,101012.30
2019-02-08T10:06:11.591Z,101005.69
2019-02-08T10:09:04.301Z,101016.29
2019-02-08T10:11:50.123Z,101013.31
2019-02-08T10:14:40.929Z,101004.67
2019-02-08T10:17:35.910Z,101003.47
2019-02-08T10:20:23.761Z,101002.16
2019-02-08T10:23:01.933Z,100996.20
2019-02-08T10:25:37.071Z,100990.11
2019-02-08T10:28:27.509Z,100999.33
2019-02-08T10:31:19.726Z,101012.75
2019-02-08T10:34:25.663Z,101001.56
2019-02-08T10:37:07.080Z,100996.36
2019-02-08T10:40:00.396Z,100989.07
2019-02-08T10:42:39.001Z,100997.10
2019-02-08T10:45:29.407Z,101003.55
2019-02-08T10:48:07.833Z,100991.80
2019-02-08T10:51:05.240Z,100983.23
2019-02-08T10:53:54.584Z,100982.91
2019-02-08T10:56:51.348Z,100982.56
2019-02-08T10:59:46.623Z,100973.48
2019-02-08T11:02:41.277Z,100976.95
2019-02-08T11:05:46.781Z,100969.11
2019-02-08T11:08:38.712Z,100961.33
2019-02-08T11:11:36.928Z,100955.81
2019-02-08T11:14:36.700Z,100956.73
2019-02-08T11:17:24.079Z,100950.59
2019-02-08T11:19:56.307Z,100948.36
2019-02-08T11:22:25.425Z,100947.64
2019-02-08T11:24:54.538Z,100930.18
2019-02-08T11:27:23.820Z,100922.34
2019-02-08T11:29:52.935Z,100923.27
2019-02-08T11:32:22.051Z,100922.13
2019-02-08T11:34:51.171Z,100923.86
2019-02-08T11:37:20.283Z,100909.92
2019-02-08T11:39:49.399Z,100908.72
2019-02-08T11:42:18.526Z,100910.52
2019-02-08T11:44:47.650Z,100908.39
2019-02-08T11:47:17.743Z,100901.37
2019-02-08T11:49:46.837Z,100900.99
2019-02-08T11:52:15.950Z,100890.14
2019-02-08T11:54:45.057Z,100886.17
2019-02-08T11:57:14.180Z,100888.41
2019-02-08T11:59:43.288Z,100875.75
2019-02-08T12:02:12.412Z,100873.63
2019-02-08T12:04:41.787Z,100866.70
2019-02-08T12:07:10.918Z,100859.34
2019-02-08T12:09:40.031Z,100865.01
2019-02-08T12:12:09.140Z,100864.61
2019-02-08T12:14:38.253Z,100854.16
2019-02-08T12:17:07.360Z,100850.23
2019-02-08T12:19:36.549Z,100848.18
2019-02-08T12:22:05.660Z,100846.01
2019-02-08T12:24:34.777Z,100846.79
2019-02-08T12:27:03.887Z,100846.41
2019-02-08T12:29:33.004Z,100849.49
2019-02-08T12:32:02.113Z,100840.37
2019-02-08T12:34:31.295Z,100840.06
2019-02-08T12:37:00.437Z,100837.84
2019-02-08T12:39:29.701Z,100826.55
2019-02-08T12:41:59.099Z,100826.11
2019-02-08T12:44:28.289Z,100820.80
2019-02-08T12:46:57.421Z,100823.80
2019-02-08T12:49:26.570Z,100825.16
2019-02-08T12:51:55.892Z,100821.62
2019-02-08T12:54:24.995Z,100816.91
2019-02-08T12:56:54.126Z,100818.27
2019-02-08T12:59:23.261Z,100818.22
2019-02-08T13:01:52.394Z,100820.48
2019-02-08T13:04:21.537Z,100813.06
2019-02-08T13:06:50.694Z,100811.80
2019-02-08T13:09:19.831Z,100815.28
2019-02-08T13:11:49.012Z,100804.38
2019-02-08T13:14:18.158Z,100794.42
2019-02-08T13:16:47.294Z,100792.23
2019-02-08T13:19:16.444Z,100782.13
2019-02-08T13:21:45.583Z,100792.60
2019-02-08T13:24:14.733Z,100783.05
2019-02-08T13:26:43.934Z,100762.58
2019-02-08T13:29:13.127Z,100765.19
2019-02-08T13:31:42.261Z,100746.38
2019-02-08T13:34:11.417Z,100753.38
2019-02-08T13:36:40.581Z,100735.09
2019-02-08T13:39:09.750Z,100742.04
2019-02-08T13:41:40.495Z,100739.89
2019-02-08T13:44:09.642Z,100750.36
2019-02-08T13:46:39.048Z,100735.62
2019-02-08T13:49:08.451Z,100729.45
2019-02-08T13:51:37.861Z,100729.95
2019-02-08T13:54:06.996Z,100726.40
2019-02-08T13:56:36.129Z,100717.70
2019-02-08T13:59:05.279Z,100722.47
2019-02-08T14:01:34.408Z,100705.43
2019-02-08T14:04:03.537Z,100702.38
2019-02-08T14:06:32.715Z,100698.05
2019-02-08T14:09:02.135Z,100693.68
2019-02-08T14:11:33.184Z,100698.95
2019-02-08T14:14:02.638Z,100683.64
2019-02-08T14:16:31.782Z,100684.52
2019-02-08T14:19:01.197Z,100678.83
2019-02-08T14:21:30.339Z,100683.19
2019-02-08T14:23:59.468Z,100683.21
2019-02-08T14:26:28.642Z,100674.54
2019-02-08T14:28:57.796Z,100691.12
2019-02-08T14:31:26.906Z,100663.17
2019-02-08T14:33:56.081Z,100667.13
2019-02-08T14:36:25.227Z,100665.81
2019-02-08T14:38:54.353Z,100671.92
2019-02-08T14:41:23.480Z,100670.15
2019-02-08T14:43:52.612Z,100661.81
2019-02-08T14:46:21.757Z,100659.19
2019-02-08T14:48:51.179Z,100655.68
2019-02-08T14:51:20.642Z,100660.53
2019-02-08T14:53:51.407Z,100649.59
2019-02-08T14:56:20.582Z,100662.30
2019-02-08T14:58:49.717Z,100650.50
2019-02-08T15:01:19.119Z,100653.58
2019-02-08T15:03:48.292Z,100661.80
2019-02-08T15:06:17.772Z,100660.55
2019-02-08T15:08:46.979Z,100658.38
2019-02-08T15:11:16.129Z,100658.34
2019-02-08T15:13:45.554Z,100645.72
2019-02-08T15:16:14.681Z,100640.95
2019-02-08T15:18:44.106Z,100633.50
2019-02-08T15:21:13.258Z,100640.00
2019-02-08T15:23:42.403Z,100645.27
2019-02-08T15:26:12.504Z,100632.61
2019-02-08T15:28:41.707Z,100647.44
2019-02-08T15:31:10.934Z,100636.99
2019-02-08T15:33:40.068Z,100621.73
2019-02-08T15:36:09.217Z,100623.88
2019-02-08T15:38:38.646Z,100609.90
2019-02-08T15:41:07.781Z,100606.87
2019-02-08T15:43:36.922Z,100598.61
2019-02-08T15:46:06.185Z,100589.89
2019-02-08T15:48:35.559Z,100588.12
2019-02-08T15:51:04.702Z,100588.09
2019-02-08T15:53:33.888Z,100587.67
2019-02-08T15:56:08.981Z,100588.51
2019-02-08T15:58:38.138Z,100587.68
2019-02-08T16:01:09.131Z,100584.62
2019-02-08T16:03:38.621Z,100579.41
2019-02-08T16:06:07.767Z,100571.12
2019-02-08T16:08:36.917Z,100568.04
2019-02-08T16:11:06.637Z,100570.68
2019-02-08T16:13:36.849Z,100560.17
2019-02-08T16:16:06.181Z,100562.77
2019-02-08T16:18:35.329Z,100564.53
2019-02-08T16:21:04.517Z,100552.30
2019-02-08T16:23:33.852Z,100557.98
2019-02-08T16:26:02.986Z,100545.33
2019-02-08T16:28:32.170Z,100533.52
2019-02-08T16:31:01.726Z,100536.60
2019-02-08T16:33:30.901Z,100536.60
2019-02-08T16:36:00.259Z,100537.05
2019-02-08T16:38:29.433Z,100540.13
2019-02-08T16:40:58.659Z,100533.55
2019-02-08T16:43:27.807Z,100520.47
2019-02-08T16:45:56.985Z,100512.17
2019-02-08T16:48:26.115Z,100505.65
2019-02-08T16:50:55.302Z,100507.39
2019-02-08T16:53:24.707Z,100510.84
2019-02-08T16:55:53.883Z,100517.83
2019-02-08T16:58:23.025Z,100520.46
2019-02-08T17:00:52.422Z,100508.67
2019-02-08T17:03:21.561Z,100508.66
2019-02-08T17:05:51.029Z,100506.47
2019-02-08T17:08:20.534Z,100499.02
2019-02-08T17:10:49.682Z,100498.59
2019-02-08T17:13:18.855Z,100495.55
2019-02-08T17:15:48.337Z,100500.36
2019-02-08T17:18:17.478Z,100487.27
2019-02-08T17:20:49.151Z,100493.81
2019-02-08T17:23:18.322Z,100494.28
2019-02-08T17:25:47.440Z,100487.69
2019-02-08T17:28:16.604Z,100485.56
2019-02-08T17:30:45.896Z,100487.69
2019-02-08T17:33:15.132Z,100472.88
2019-02-08T17:35:44.284Z,100466.77
2019-02-08T17:38:13.492Z,100464.58
2019-02-08T17:40:46.434Z,100455.84
2019-02-08T17:43:15.605Z,100464.59
2019-02-08T17:45:44.738Z,100453.67
2019-02-08T17:48:15.631Z,100448.46
2019-02-08T17:50:44.818Z,100461.55
2019-02-08T17:53:14.023Z,100452.36
2019-02-08T17:55:43.494Z,100449.32
2019-02-08T17:58:13.252Z,100441.00
2019-02-08T18:00:52.222Z,100437.58
2019-02-08T18:03:21.441Z,100441.47
2019-02-08T18:05:50.615Z,100429.70
2019-02-08T18:08:20.074Z,100444.07
2019-02-08T18:10:49.247Z,100429.66
2019-02-08T18:13:18.463Z,100419.21
2019-02-08T18:15:48.040Z,100414.39
2019-02-08T18:18:17.953Z,100416.17
2019-02-08T18:20:54.714Z,100415.31
2019-02-08T18:23:24.117Z,100410.08
2019-02-08T18:25:53.287Z,100412.72
2019-02-08T18:28:22.483Z,100409.20
2019-02-08T18:30:51.885Z,100397.89
2019-02-08T18:33:21.091Z,100390.04
2019-02-08T18:35:50.234Z,100396.55
2019-02-08T18:38:19.455Z,100383.89
2019-02-08T18:40:48.569Z,100379.98
2019-02-08T18:43:17.767Z,100398.28
2019-02-08T18:45:47.355Z,100374.31
2019-02-08T18:48:16.579Z,100363.44
2019-02-08T18:50:50.806Z,100373.03
2019-02-08T18:53:19.965Z,100364.77
2019-02-08T18:55:49.194Z,100353.84
2019-02-08T18:58:19.394Z,100355.13
2019-02-08T19:00:51.398Z,100340.33
2019-02-08T19:03:21.375Z,100335.95
2019-02-08T19:05:50.512Z,100339.45
2019-02-08T19:08:19.651Z,100323.73
2019-02-08T19:10:49.225Z,100332.49
2019-02-08T19:13:18.335Z,100310.66
2019-02-08T19:15:47.681Z,100307.63
2019-02-08T19:18:16.847Z,100305.00
2019-02-08T19:20:45.965Z,100304.14
2019-02-08T19:23:15.312Z,100293.68
2019-02-08T19:25:45.815Z,100298.89
2019-02-08T19:28:15.199Z,100293.23
2019-02-08T19:30:45.184Z,100302.36
2019-02-08T19:33:14.291Z,100296.27
2019-02-08T19:35:43.402Z,100280.16
2019-02-08T19:38:12.513Z,100281.91
2019-02-08T19:40:48.064Z,100260.50
2019-02-08T19:43:17.188Z,100262.72
2019-02-08T19:45:46.295Z,100262.27
2019-02-08T19:48:15.410Z,100262.70
2019-02-08T19:50:47.166Z,100253.11
2019-02-08T19:53:16.288Z,100242.20
2019-02-08T19:55:45.398Z,100251.80
2019-02-08T19:58:14.523Z,100243.08
2019-02-08T20:00:44.714Z,100231.30
2019-02-08T20:03:14.804Z,100240.91
2019-02-08T20:05:43.918Z,100219.08
2019-02-08T20:08:13.775Z,100222.14
2019-02-08T20:10:48.224Z,100215.16
2019-02-08T20:13:17.581Z,100213.87
2019-02-08T20:15:46.694Z,100212.53
2019-02-08T20:18:16.037Z,100209.05
2019-02-08T20:20:45.391Z,100206.02
2019-02-08T20:23:14.499Z,100191.19
2019-02-08T20:25:43.608Z,100194.67
2019-02-08T20:28:12.780Z,100181.14
2019-02-08T20:30:42.857Z,100181.16
2019-02-08T20:33:12.211Z,100179.83
2019-02-08T20:35:41.320Z,100175.47
2019-02-08T20:38:10.435Z,100178.97
2019-02-08T20:40:46.022Z,100168.50
2019-02-08T20:43:15.141Z,100170.25
2019-02-08T20:45:44.254Z,100165.03
2019-02-08T20:48:18.639Z,100161.09
2019-02-08T20:50:47.930Z,100162.42
2019-02-08T20:53:17.918Z,100156.30
2019-02-08T20:55:47.029Z,100150.18
2019-02-08T20:58:16.140Z,100151.06
2019-02-08T21:00:48.301Z,100151.95
2019-02-08T21:03:17.421Z,100147.16
2019-02-08T21:05:46.607Z,100145.84
2019-02-08T21:08:15.790Z,100140.17
2019-02-08T21:10:44.903Z,100131.00
2019-02-08T21:13:14.246Z,100147.12
2019-02-08T21:15:43.367Z,100132.33
2019-02-08T21:18:12.724Z,100134.51
2019-02-08T21:20:42.078Z,100127.52
2019-02-08T21:23:11.194Z,100139.73
2019-02-08T21:25:41.798Z,100133.17
2019-02-08T21:28:10.917Z,100124.05
2019-02-08T21:30:40.038Z,100128.41
2019-02-08T21:33:10.500Z,100117.06
2019-02-08T21:35:39.627Z,100121.41
2019-02-08T21:38:09.027Z,100116.62
2019-02-08T21:40:38.225Z,100096.14
2019-02-08T21:43:07.400Z,100098.33
2019-02-08T21:45:38.485Z,100087.45
2019-02-08T21:48:08.650Z,100090.92
2019-02-08T21:50:38.017Z,100098.77
2019-02-08T21:53:07.133Z,100115.77
2019-02-08T21:55:36.492Z,100116.19
2019-02-08T21:58:05.771Z,100112.72
2019-02-08T22:00:41.930Z,100104.02
2019-02-08T22:03:11.345Z,100106.58
2019-02-08T22:05:49.401Z,100116.58
2019-02-08T22:08:18.512Z,100098.75
2019-02-08T22:10:47.629Z,100091.75
2019-02-08T22:13:16.749Z,100083.48
2019-02-08T22:15:46.004Z,100083.50
2019-02-08T22:18:15.123Z,100074.34
2019-02-08T22:20:44.227Z,100089.56
2019-02-08T22:23:13.369Z,100085.65
2019-02-08T22:25:43.451Z,100072.59
2019-02-08T22:28:12.565Z,100071.70
2019-02-08T22:30:42.050Z,100070.84
2019-02-08T22:33:11.440Z,100066.91
2019-02-08T22:35:40.552Z,100059.52
2019-02-08T22:38:09.669Z,100051.66
2019-02-08T22:40:38.779Z,100050.77
2019-02-08T22:43:07.930Z,100049.03
2019-02-08T22:45:38.852Z,100049.89
2019-02-08T22:48:08.029Z,100047.22
2019-02-08T22:50:37.143Z,100053.31
2019-02-08T22:53:07.102Z,100042.89
2019-02-08T22:55:36.484Z,100048.53
2019-02-08T22:58:07.351Z,100042.86
2019-02-08T23:00:43.197Z,100033.75
2019-02-08T23:03:16.035Z,100043.75
2019-02-08T23:05:46.111Z,100031.14
2019-02-08T23:08:15.352Z,100018.50
2019-02-08T23:10:44.538Z,100021.13
2019-02-08T23:13:13.916Z,100013.71
2019-02-08T23:15:43.037Z,100021.09
2019-02-08T23:18:12.312Z,100018.03
2019-02-08T23:20:41.424Z,100018.45
2019-02-08T23:23:10.542Z,100014.09
2019-02-08T23:25:39.664Z,100006.23
2019-02-08T23:28:08.781Z,100013.20
2019-02-08T23:30:37.927Z,100001.88
2019-02-08T23:33:07.037Z,99998.85
2019-02-08T23:35:42.881Z,100003.62
2019-02-08T23:38:07.435Z,99988.41
2019-02-08T23:40:36.546Z,99990.59
2019-02-08T23:43:05.657Z,99978.00
2019-02-08T23:45:35.985Z,99979.71
2019-02-08T23:48:05.092Z,99990.16
2019-02-08T23:50:34.198Z,99988.40
2019-02-08T23:53:03.307Z,99984.02
2019-02-08T23:55:32.418Z,99988.36
2019-02-08T23:58:01.527Z,99979.25
